Time;durP1;ratioP1;P1;durP2;ratioP2;P2;SDS_P1;SDS_P2;PMS_P1;PMS_P2;Temp;Humidity;BMP_temperature;BMP_pressure;BME280_temperature;BME280_humidity;BME280_pressure;Samples;Min_cycle;Max_cycle;Signal;HPM_P1;HPM_P2
2023/03/01 00:01:11;;;;;;;0.60;0.60;;;-0.80;99.90;;;;;;5055354;28;20450;-77
2023/03/01 00:03:38;;;;;;;0.40;0.40;;;-0.80;99.90;;;;;;5054969;28;20441;-77
2023/03/01 00:06:06;;;;;;;0.63;0.50;;;-0.80;99.90;;;;;;5055936;28;20442;-77
2023/03/01 00:08:34;;;;;;;1.30;0.53;;;-0.80;99.90;;;;;;5057581;28;20462;-78
2023/03/01 00:11:02;;;;;;;0.60;0.40;;;-0.80;99.90;;;;;;5056659;28;20463;-78
2023/03/01 00:13:29;;;;;;;0.80;0.47;;;-0.80;99.90;;;;;;5056604;28;20530;-78
2023/03/01 00:15:55;;;;;;;1.17;1.03;;;-0.90;99.90;;;;;;5056495;28;20485;-78
2023/03/01 00:18:24;;;;;;;0.50;0.50;;;-0.90;99.90;;;;;;5056175;28;20450;-78
2023/03/01 00:20:52;;;;;;;0.53;0.53;;;-0.90;99.90;;;;;;5056430;28;20473;-78
2023/03/01 00:23:18;;;;;;;0.30;0.30;;;-0.90;99.90;;;;;;5056302;28;20506;-78
2023/03/01 00:25:45;;;;;;;1.77;1.67;;;-0.90;99.90;;;;;;5056315;28;20452;-78
2023/03/01 00:28:12;;;;;;;0.60;0.60;;;-0.90;99.90;;;;;;5055905;28;20478;-78
2023/03/01 00:30:38;;;;;;;0.40;0.40;;;-1.00;99.90;;;;;;5056218;28;20450;-78
2023/03/01 00:33:05;;;;;;;0.33;0.33;;;-1.00;99.90;;;;;;5056236;28;20446;-78
2023/03/01 00:35:34;;;;;;;1.90;0.83;;;-1.00;99.90;;;;;;5056499;28;20515;-78
2023/03/01 00:38:02;;;;;;;0.30;0.30;;;-1.00;99.90;;;;;;5055806;28;20492;-78
2023/03/01 00:40:30;;;;;;;0.83;0.83;;;-1.00;99.90;;;;;;5056068;28;20420;-78
2023/03/01 00:42:57;;;;;;;0.40;0.40;;;-1.10;99.90;;;;;;5055949;28;20478;-78
2023/03/01 00:45:24;;;;;;;1.97;1.87;;;-1.00;99.90;;;;;;5055989;28;20446;-78
2023/03/01 00:47:51;;;;;;;0.30;0.30;;;-1.10;99.90;;;;;;5055830;28;20441;-78
2023/03/01 00:50:18;;;;;;;0.30;0.30;;;-1.10;99.90;;;;;;5055640;28;20938;-78
2023/03/01 00:52:47;;;;;;;0.77;0.70;;;-1.10;99.90;;;;;;5055856;28;20449;-77
2023/03/01 00:55:14;;;;;;;0.50;0.50;;;-1.10;99.90;;;;;;5055853;28;20442;-78
2023/03/01 00:57:40;;;;;;;0.30;0.30;;;-1.10;99.90;;;;;;5055976;28;20474;-78
2023/03/01 01:00:09;;;;;;;1.83;0.50;;;-1.10;99.90;;;;;;5055649;28;20942;-78
2023/03/01 01:02:36;;;;;;;0.60;0.60;;;-1.20;99.90;;;;;;5055532;28;20478;-78
2023/03/01 01:05:03;;;;;;;0.70;0.70;;;-1.20;99.90;;;;;;5055616;28;20417;-78
2023/03/01 01:07:30;;;;;;;0.60;0.60;;;-1.20;99.90;;;;;;5055286;28;20989;-78
2023/03/01 01:09:58;;;;;;;0.40;0.40;;;-1.20;99.90;;;;;;5055539;28;20446;-78
2023/03/01 01:12:25;;;;;;;1.17;1.07;;;-1.20;99.90;;;;;;5055493;28;20444;-78
2023/03/01 01:14:51;;;;;;;1.57;0.53;;;-1.30;99.90;;;;;;5055441;28;20425;-78
2023/03/01 01:17:19;;;;;;;0.77;0.77;;;-1.20;99.90;;;;;;5054575;28;20452;-78
2023/03/01 01:19:46;;;;;;;1.90;1.27;;;-1.30;99.90;;;;;;5054697;28;20934;-79
2023/03/01 01:22:13;;;;;;;0.63;0.63;;;-1.30;99.90;;;;;;5055060;28;20412;-78
2023/03/01 01:24:39;;;;;;;0.93;0.67;;;-1.30;99.90;;;;;;5055192;28;20863;-78
2023/03/01 01:27:08;;;;;;;0.60;0.60;;;-1.30;99.90;;;;;;5055173;28;20580;-79
2023/03/01 01:29:34;;;;;;;0.40;0.30;;;-1.40;99.90;;;;;;5055847;28;20478;-79
2023/03/01 01:32:01;;;;;;;0.30;0.30;;;-1.40;99.90;;;;;;5055140;28;20446;-78
2023/03/01 01:34:28;;;;;;;0.30;0.30;;;-1.40;99.90;;;;;;5055076;28;20421;-78
2023/03/01 01:36:55;;;;;;;0.30;0.30;;;-1.40;99.90;;;;;;5054638;28;20442;-78
2023/03/01 01:39:21;;;;;;;0.30;0.30;;;-1.40;99.90;;;;;;5054859;28;20460;-78
2023/03/01 01:41:48;;;;;;;1.80;1.70;;;-1.40;99.90;;;;;;5055742;28;20429;-78
2023/03/01 01:44:20;;;;;;;0.50;0.50;;;-1.40;99.90;;;;;;5055023;28;20461;-79
2023/03/01 01:46:51;;;;;;;0.60;0.60;;;-1.40;99.90;;;;;;5055062;28;20798;-79
2023/03/01 01:49:24;;;;;;;0.57;0.50;;;-1.50;99.90;;;;;;5054863;28;20426;-79
2023/03/01 01:51:58;;;;;;;1.97;0.50;;;-1.50;99.90;;;;;;5056383;28;20444;-77
2023/03/01 01:54:29;;;;;;;0.40;0.40;;;-1.50;99.90;;;;;;5056515;28;20454;-77
2023/03/01 01:56:59;;;;;;;0.40;0.40;;;-1.60;99.90;;;;;;5056241;28;20431;-78
2023/03/01 01:59:30;;;;;;;0.93;0.90;;;-1.60;99.90;;;;;;5056008;28;20831;-78
2023/03/01 02:02:00;;;;;;;0.30;0.30;;;-1.70;99.90;;;;;;5054304;28;20410;-78
2023/03/01 02:04:27;;;;;;;1.27;0.70;;;-1.70;99.90;;;;;;5054426;28;20460;-78
2023/03/01 02:07:00;;;;;;;1.23;1.23;;;-1.70;99.90;;;;;;5054355;28;20450;-78
2023/03/01 02:09:28;;;;;;;1.70;1.60;;;-1.70;99.90;;;;;;5054114;28;20925;-78
2023/03/01 02:11:55;;;;;;;0.40;0.40;;;-1.70;99.90;;;;;;5054360;28;20421;-78
2023/03/01 02:14:21;;;;;;;1.10;1.10;;;-1.70;99.90;;;;;;5054335;28;20893;-78
2023/03/01 02:16:50;;;;;;;0.30;0.30;;;-1.70;99.90;;;;;;5054205;28;20425;-78
2023/03/01 02:19:27;;;;;;;0.40;0.40;;;-1.70;99.90;;;;;;5054243;28;20421;-78
2023/03/01 02:22:01;;;;;;;0.50;0.50;;;-1.60;99.90;;;;;;5054210;28;20409;-79
2023/03/01 02:24:44;;;;;;;0.50;0.50;;;-1.50;99.90;;;;;;5053848;28;20981;-78
2023/03/01 02:27:12;;;;;;;0.70;0.53;;;-1.40;99.90;;;;;;5054011;28;20468;-78
2023/03/01 02:29:43;;;;;;;2.53;0.80;;;-1.30;99.90;;;;;;5053336;28;20815;-78
2023/03/01 02:32:11;;;;;;;0.37;0.37;;;-1.20;99.90;;;;;;5054030;28;20471;-79
2023/03/01 02:34:40;;;;;;;0.30;0.30;;;-1.20;99.90;;;;;;5053864;28;20909;-78
2023/03/01 02:37:14;;;;;;;0.30;0.30;;;-1.10;99.90;;;;;;5053494;28;20990;-78
2023/03/01 02:39:45;;;;;;;0.47;0.47;;;-0.90;99.90;;;;;;5053691;28;20970;-79
2023/03/01 02:42:15;;;;;;;0.67;0.67;;;-0.90;99.90;;;;;;5053540;28;20953;-78
2023/03/01 02:44:43;;;;;;;2.10;0.90;;;-0.90;99.90;;;;;;5053764;28;20491;-78
2023/03/01 02:47:10;;;;;;;0.50;0.47;;;-0.90;99.90;;;;;;5053644;28;20470;-79
2023/03/01 02:49:38;;;;;;;0.30;0.30;;;-0.80;99.90;;;;;;5053837;28;20432;-78
2023/03/01 02:52:44;;;;;;;0.30;0.30;;;-0.80;99.90;;;;;;5053336;28;20870;-78
2023/03/01 02:55:13;;;;;;;0.37;0.37;;;-0.70;99.90;;;;;;5053360;28;20932;-78
2023/03/01 02:57:42;;;;;;;5.43;0.80;;;-0.70;99.90;;;;;;5053487;28;20468;-79
2023/03/01 03:00:19;;;;;;;0.90;0.90;;;-0.70;99.90;;;;;;5053258;28;20436;-78
2023/03/01 03:02:46;;;;;;;0.50;0.50;;;-0.70;99.90;;;;;;5053495;28;20442;-79
2023/03/01 03:05:16;;;;;;;0.50;0.50;;;-0.60;99.90;;;;;;5053725;28;20447;-78
2023/03/01 03:07:44;;;;;;;1.03;0.87;;;-0.50;99.90;;;;;;5053010;28;20869;-78
2023/03/01 03:10:14;;;;;;;0.70;0.50;;;-0.60;99.90;;;;;;5053947;28;20424;-78
2023/03/01 03:12:41;;;;;;;0.30;0.30;;;-0.60;99.90;;;;;;5053065;28;20952;-78
2023/03/01 03:15:09;;;;;;;0.70;0.50;;;-0.60;99.90;;;;;;5053339;28;20446;-78
2023/03/01 03:17:38;;;;;;;1.17;1.07;;;-0.50;99.90;;;;;;5053263;28;20520;-78
2023/03/01 03:20:10;;;;;;;1.47;1.37;;;-0.50;99.90;;;;;;5053775;28;20421;-78
2023/03/01 03:22:37;;;;;;;0.53;0.53;;;-0.50;99.90;;;;;;5053632;28;20786;-78
2023/03/01 03:25:05;;;;;;;0.50;0.50;;;-0.50;99.90;;;;;;5053179;28;20478;-79
2023/03/01 03:27:31;;;;;;;1.53;0.70;;;-0.50;99.90;;;;;;5053172;28;20440;-78
2023/03/01 03:29:58;;;;;;;0.63;0.50;;;-0.50;99.90;;;;;;5053287;28;20418;-78
2023/03/01 03:32:25;;;;;;;0.53;0.40;;;-0.50;99.90;;;;;;5052859;28;20438;-78
2023/03/01 03:34:53;;;;;;;0.67;0.67;;;-0.50;99.90;;;;;;5053447;28;20445;-79
2023/03/01 03:40:00;;;;;;;2.50;1.03;;;-0.40;99.90;;;;;;5052541;28;20466;-78
2023/03/01 03:42:27;;;;;;;1.33;0.57;;;-0.40;99.90;;;;;;5056086;28;20417;-79
2023/03/01 03:44:53;;;;;;;1.30;0.83;;;-0.40;99.90;;;;;;5057036;28;20508;-79
2023/03/01 03:47:20;;;;;;;1.07;0.63;;;-0.40;99.90;;;;;;5057010;28;20448;-78
2023/03/01 03:49:47;;;;;;;4.00;0.93;;;-0.40;99.90;;;;;;5057066;28;20435;-78
2023/03/01 03:52:14;;;;;;;0.83;0.63;;;-0.40;99.90;;;;;;5057011;28;20425;-78
2023/03/01 03:54:41;;;;;;;0.70;0.70;;;-0.40;99.90;;;;;;5056930;28;20441;-78
2023/03/01 03:57:08;;;;;;;0.40;0.40;;;-0.40;99.90;;;;;;5056857;28;20463;-78
2023/03/01 03:59:35;;;;;;;0.40;0.40;;;-0.40;99.90;;;;;;5056835;28;20458;-78
2023/03/01 04:02:01;;;;;;;0.60;0.50;;;-0.40;99.90;;;;;;5056816;28;20425;-78
2023/03/01 04:04:28;;;;;;;0.90;0.90;;;-0.40;99.90;;;;;;5056717;28;20448;-78
2023/03/01 04:06:55;;;;;;;0.30;0.30;;;-0.40;99.90;;;;;;5056671;28;20488;-78
2023/03/01 04:09:23;;;;;;;0.50;0.50;;;-0.30;99.90;;;;;;5056729;28;20453;-78
2023/03/01 04:11:49;;;;;;;0.37;0.37;;;-0.30;99.90;;;;;;5056332;28;20942;-79
2023/03/01 04:14:16;;;;;;;0.30;0.30;;;-0.30;99.90;;;;;;5056320;28;20466;-78
2023/03/01 04:16:42;;;;;;;0.30;0.30;;;-0.30;99.90;;;;;;5056130;28;20423;-79
2023/03/01 04:19:09;;;;;;;0.97;0.93;;;-0.30;99.90;;;;;;5056205;28;20432;-78
2023/03/01 04:21:37;;;;;;;0.40;0.40;;;-0.30;99.90;;;;;;5056416;28;20435;-78
2023/03/01 04:24:04;;;;;;;1.00;0.70;;;-0.30;99.90;;;;;;5056336;28;20483;-78
2023/03/01 04:26:32;;;;;;;0.33;0.33;;;-0.30;99.90;;;;;;5056398;28;20443;-79
2023/03/01 04:28:59;;;;;;;1.10;0.70;;;-0.20;99.90;;;;;;5056495;28;20461;-79
2023/03/01 04:31:25;;;;;;;0.83;0.83;;;-0.30;99.90;;;;;;5056257;28;20425;-77
2023/03/01 04:33:53;;;;;;;0.67;0.67;;;-0.30;99.90;;;;;;5056221;28;20445;-77
2023/03/01 04:36:22;;;;;;;0.37;0.30;;;-0.20;99.90;;;;;;5056204;28;20452;-77
2023/03/01 04:38:49;;;;;;;0.70;0.53;;;-0.20;99.90;;;;;;5055744;28;20478;-77
2023/03/01 04:41:17;;;;;;;0.40;0.40;;;-0.20;99.90;;;;;;5055787;28;20417;-77
2023/03/01 04:43:46;;;;;;;1.13;1.13;;;-0.20;99.90;;;;;;5055946;28;20482;-77
2023/03/01 04:46:15;;;;;;;1.47;0.93;;;-0.20;99.90;;;;;;5055708;28;20912;-77
2023/03/01 04:48:43;;;;;;;5.50;1.30;;;-0.20;99.90;;;;;;5055959;28;20467;-77
2023/03/01 04:51:13;;;;;;;0.93;0.93;;;-0.20;99.90;;;;;;5055914;28;20532;-77
2023/03/01 04:53:40;;;;;;;1.13;1.13;;;-0.20;99.90;;;;;;5055516;28;20470;-77
2023/03/01 04:56:07;;;;;;;2.83;1.73;;;-0.20;99.90;;;;;;5055581;28;20450;-77
2023/03/01 04:58:33;;;;;;;0.60;0.60;;;-0.30;99.90;;;;;;5055731;28;20472;-77
2023/03/01 05:01:01;;;;;;;0.70;0.57;;;-0.30;99.90;;;;;;5055696;28;20442;-77
2023/03/01 05:03:28;;;;;;;0.67;0.67;;;-0.30;99.90;;;;;;5055298;28;20455;-77
2023/03/01 05:05:59;;;;;;;0.30;0.30;;;-0.30;99.90;;;;;;5055269;28;20823;-76
2023/03/01 05:08:26;;;;;;;0.37;0.37;;;-0.20;99.90;;;;;;5055521;28;20511;-76
2023/03/01 05:10:54;;;;;;;0.60;0.60;;;-0.20;99.90;;;;;;5055524;28;20431;-77
2023/03/01 05:13:22;;;;;;;0.40;0.40;;;-0.20;99.90;;;;;;5055498;28;20450;-77
2023/03/01 05:15:49;;;;;;;0.83;0.83;;;-0.20;99.90;;;;;;5055085;28;20952;-77
2023/03/01 05:18:17;;;;;;;1.37;0.77;;;-0.20;99.90;;;;;;5055349;28;20461;-77
2023/03/01 05:20:45;;;;;;;0.87;0.77;;;-0.10;99.90;;;;;;5055337;28;20450;-77
2023/03/01 05:23:12;;;;;;;0.43;0.43;;;0.00;99.90;;;;;;5055287;28;20529;-76
2023/03/01 05:25:39;;;;;;;0.60;0.50;;;0.00;99.90;;;;;;5055188;28;20486;-76
2023/03/01 05:28:09;;;;;;;17.77;2.83;;;0.00;99.90;;;;;;5055160;28;20557;-76
2023/03/01 05:30:38;;;;;;;0.40;0.40;;;0.00;99.90;;;;;;5055138;28;20425;-76
2023/03/01 05:33:12;;;;;;;0.97;0.97;;;0.00;99.90;;;;;;5055100;28;20446;-77
2023/03/01 05:35:41;;;;;;;1.97;0.57;;;0.00;99.90;;;;;;5054960;28;20472;-77
2023/03/01 05:38:08;;;;;;;1.00;1.00;;;0.00;99.90;;;;;;5054755;28;20482;-77
2023/03/01 05:40:36;;;;;;;0.40;0.40;;;0.00;99.90;;;;;;5054679;28;20775;-77
2023/03/01 05:43:04;;;;;;;0.50;0.50;;;0.00;99.90;;;;;;5054935;28;20425;-77
2023/03/01 05:45:33;;;;;;;0.30;0.30;;;0.00;99.90;;;;;;5054760;28;20820;-77
2023/03/01 05:48:00;;;;;;;0.70;0.70;;;0.00;99.90;;;;;;5054695;28;20998;-77
2023/03/01 05:50:28;;;;;;;3.47;1.20;;;0.00;99.90;;;;;;5054730;28;20442;-76
2023/03/01 05:53:00;;;;;;;1.50;1.03;;;0.00;99.90;;;;;;5054407;28;20481;-77
2023/03/01 05:55:28;;;;;;;0.30;0.30;;;0.00;99.90;;;;;;5054634;28;20871;-76
2023/03/01 05:57:55;;;;;;;0.33;0.33;;;0.10;99.90;;;;;;5054476;28;20440;-76
2023/03/01 06:00:22;;;;;;;2.63;0.80;;;0.10;99.90;;;;;;5054556;28;20453;-76
2023/03/01 06:02:49;;;;;;;1.03;1.03;;;0.10;99.90;;;;;;5054566;28;20507;-76
2023/03/01 06:05:16;;;;;;;3.23;0.73;;;0.10;99.90;;;;;;5053661;28;20532;-76
2023/03/01 06:07:43;;;;;;;0.90;0.90;;;0.10;99.90;;;;;;5054064;28;20470;-76
2023/03/01 06:10:13;;;;;;;0.60;0.60;;;0.10;99.90;;;;;;5054381;28;20503;-77
2023/03/01 06:12:41;;;;;;;0.50;0.50;;;0.10;99.90;;;;;;5054340;28;20446;-77
2023/03/01 06:15:10;;;;;;;1.67;0.87;;;0.10;99.90;;;;;;5054299;28;20541;-76
2023/03/01 06:17:40;;;;;;;2.30;1.33;;;0.10;99.90;;;;;;5054168;28;20494;-77
2023/03/01 06:20:09;;;;;;;1.27;1.17;;;0.10;99.90;;;;;;5054172;28;20898;-77
2023/03/01 06:22:36;;;;;;;1.63;0.73;;;0.10;99.90;;;;;;5054156;28;20504;-77
2023/03/01 06:25:03;;;;;;;1.13;1.03;;;0.10;99.90;;;;;;5053722;28;21020;-77
2023/03/01 06:27:31;;;;;;;0.50;0.50;;;0.10;99.90;;;;;;5054049;28;20454;-77
2023/03/01 06:29:57;;;;;;;0.83;0.83;;;0.20;99.90;;;;;;5054074;28;20438;-77
2023/03/01 06:32:24;;;;;;;0.50;0.50;;;0.20;99.90;;;;;;5053680;28;20433;-77
2023/03/01 06:34:51;;;;;;;0.73;0.50;;;0.20;99.90;;;;;;5054396;28;20432;-77
2023/03/01 06:37:18;;;;;;;0.63;0.60;;;0.30;99.90;;;;;;5053531;28;20880;-77
2023/03/01 06:39:44;;;;;;;0.83;0.83;;;0.30;99.90;;;;;;5053545;28;20881;-77
2023/03/01 06:42:11;;;;;;;0.30;0.30;;;0.30;99.90;;;;;;5053531;28;21004;-77
2023/03/01 06:44:39;;;;;;;0.70;0.33;;;0.40;99.90;;;;;;5053769;28;20502;-77
2023/03/01 06:47:06;;;;;;;0.90;0.90;;;0.50;99.90;;;;;;5053691;28;20473;-77
2023/03/01 06:49:32;;;;;;;0.50;0.50;;;0.50;99.90;;;;;;5053752;28;20424;-77
2023/03/01 06:51:59;;;;;;;1.00;1.00;;;0.50;99.90;;;;;;5053669;28;20496;-77
2023/03/01 06:54:26;;;;;;;3.60;1.17;;;0.60;99.90;;;;;;5053347;28;20850;-77
2023/03/01 06:56:54;;;;;;;0.87;0.83;;;0.60;99.90;;;;;;5053468;28;20477;-77
2023/03/01 06:59:21;;;;;;;10.77;1.07;;;0.80;99.90;;;;;;5053553;28;20421;-77
2023/03/01 07:01:49;;;;;;;0.50;0.50;;;0.80;99.90;;;;;;5053542;28;20560;-77
2023/03/01 07:04:15;;;;;;;1.03;1.03;;;0.90;99.90;;;;;;5053465;28;20425;-77
2023/03/01 07:06:42;;;;;;;2.93;0.60;;;0.90;99.90;;;;;;5053432;28;20446;-77
2023/03/01 07:09:09;;;;;;;0.60;0.60;;;0.90;99.90;;;;;;5053455;28;20454;-77
2023/03/01 07:11:35;;;;;;;0.50;0.50;;;1.00;99.90;;;;;;5053417;28;20529;-77
2023/03/01 07:14:03;;;;;;;0.33;0.33;;;1.10;99.90;;;;;;5053409;28;20478;-77
2023/03/01 07:16:29;;;;;;;2.43;1.77;;;1.10;99.90;;;;;;5053361;28;20445;-77
2023/03/01 07:18:57;;;;;;;0.40;0.40;;;1.10;99.90;;;;;;5053233;28;20470;-77
2023/03/01 07:21:24;;;;;;;4.83;1.47;;;1.10;99.90;;;;;;5053287;28;20465;-77
2023/03/01 07:23:51;;;;;;;0.30;0.30;;;1.00;99.90;;;;;;5053267;28;20505;-77
2023/03/01 07:26:17;;;;;;;1.57;1.00;;;1.00;99.90;;;;;;5053429;28;20474;-77
2023/03/01 07:28:44;;;;;;;2.60;2.40;;;1.10;99.90;;;;;;5052860;28;20452;-77
2023/03/01 07:31:11;;;;;;;0.60;0.60;;;1.10;99.90;;;;;;5053226;28;20454;-77
2023/03/01 07:33:37;;;;;;;1.03;0.87;;;1.10;99.90;;;;;;5053203;28;20453;-77
2023/03/01 07:36:07;;;;;;;1.30;1.00;;;1.10;99.90;;;;;;5053164;28;20421;-77
2023/03/01 07:38:34;;;;;;;0.40;0.40;;;1.10;99.90;;;;;;5052942;28;20559;-77
2023/03/01 07:41:02;;;;;;;1.07;0.77;;;1.10;99.90;;;;;;5053111;28;20453;-77
2023/03/01 07:43:29;;;;;;;0.83;0.83;;;1.10;99.90;;;;;;5052866;28;20406;-77
2023/03/01 07:45:59;;;;;;;1.07;1.07;;;1.10;99.90;;;;;;5053005;28;20490;-77
2023/03/01 07:48:26;;;;;;;1.80;1.30;;;1.10;99.90;;;;;;5052909;28;20448;-77
2023/03/01 07:50:52;;;;;;;0.77;0.40;;;1.10;99.90;;;;;;5052975;28;20896;-77
2023/03/01 07:53:20;;;;;;;1.47;1.40;;;1.20;99.90;;;;;;5052668;28;20934;-76
2023/03/01 07:55:47;;;;;;;0.60;0.60;;;1.20;99.90;;;;;;5052589;28;20821;-76
2023/03/01 07:58:13;;;;;;;1.07;1.07;;;1.20;99.90;;;;;;5052895;28;20822;-76
2023/03/01 08:00:40;;;;;;;0.60;0.60;;;1.20;99.90;;;;;;5052892;28;20442;-76
2023/03/01 08:03:07;;;;;;;1.57;1.47;;;1.20;99.90;;;;;;5052870;28;20474;-76
2023/03/01 08:05:33;;;;;;;1.40;1.30;;;1.20;99.90;;;;;;5052809;28;20478;-77
2023/03/01 08:08:00;;;;;;;0.77;0.40;;;1.20;99.90;;;;;;5052771;28;20471;-77
2023/03/01 08:10:28;;;;;;;1.00;0.57;;;1.30;99.90;;;;;;5052906;28;20452;-77
2023/03/01 08:12:55;;;;;;;3.20;3.00;;;1.40;99.90;;;;;;5052827;28;20837;-77
2023/03/01 08:15:21;;;;;;;0.40;0.40;;;1.50;99.90;;;;;;5052708;28;20836;-77
2023/03/01 08:17:50;;;;;;;3.90;3.50;;;1.50;99.90;;;;;;5052395;28;20893;-77
2023/03/01 08:20:17;;;;;;;0.70;0.70;;;1.50;99.90;;;;;;5052762;28;20485;-77
2023/03/01 08:22:44;;;;;;;8.73;1.47;;;1.60;99.90;;;;;;5052750;28;20787;-77
2023/03/01 08:25:11;;;;;;;0.70;0.70;;;1.70;99.90;;;;;;5052326;28;20464;-77
2023/03/01 08:27:39;;;;;;;2.40;2.30;;;1.80;99.90;;;;;;5054084;28;20558;-77
2023/03/01 08:30:07;;;;;;;1.63;1.00;;;1.80;99.90;;;;;;5056752;28;20446;-77
2023/03/01 08:32:37;;;;;;;2.20;0.90;;;2.00;99.90;;;;;;5056290;28;20503;-77
2023/03/01 08:35:03;;;;;;;2.87;1.30;;;2.10;99.90;;;;;;5056462;28;20477;-77
2023/03/01 08:37:32;;;;;;;2.80;1.13;;;2.20;99.90;;;;;;5055682;28;20469;-78
2023/03/01 08:39:59;;;;;;;0.40;0.37;;;2.30;99.90;;;;;;5056168;28;20480;-76
2023/03/01 08:42:26;;;;;;;2.97;1.17;;;2.50;99.90;;;;;;5056085;28;20455;-76
2023/03/01 08:44:54;;;;;;;3.30;1.07;;;2.70;99.90;;;;;;5055871;28;20450;-76
2023/03/01 08:47:21;;;;;;;1.13;0.80;;;2.80;99.90;;;;;;5055972;28;20470;-76
2023/03/01 08:49:47;;;;;;;1.50;0.70;;;3.00;99.90;;;;;;5055995;28;20426;-76
2023/03/01 08:52:14;;;;;;;1.97;1.00;;;3.20;99.90;;;;;;5055899;28;20856;-76
2023/03/01 08:54:41;;;;;;;0.97;0.97;;;3.30;99.90;;;;;;5055827;28;20446;-76
2023/03/01 08:57:09;;;;;;;1.00;1.00;;;3.50;99.90;;;;;;5055788;28;20470;-76
2023/03/01 08:59:37;;;;;;;1.37;0.80;;;3.60;99.90;;;;;;5055749;28;20451;-76
2023/03/01 09:02:05;;;;;;;2.13;1.43;;;3.70;99.90;;;;;;5055683;28;20546;-76
2023/03/01 09:04:33;;;;;;;0.90;0.60;;;3.80;99.90;;;;;;5055676;28;20446;-76
2023/03/01 09:06:59;;;;;;;1.57;1.30;;;4.00;99.90;;;;;;5055495;28;20573;-76
2023/03/01 09:09:26;;;;;;;0.57;0.57;;;4.30;99.90;;;;;;5055276;28;20903;-76
2023/03/01 09:11:53;;;;;;;0.90;0.87;;;4.40;99.90;;;;;;5055234;28;20812;-77
2023/03/01 09:14:19;;;;;;;5.13;0.90;;;4.60;99.90;;;;;;5055177;28;20425;-77
2023/03/01 09:16:46;;;;;;;0.70;0.70;;;5.00;99.90;;;;;;5055713;28;20447;-77
2023/03/01 09:19:14;;;;;;;0.67;0.53;;;5.60;99.90;;;;;;5055403;28;20549;-77
2023/03/01 09:21:52;;;;;;;1.17;1.17;;;6.00;99.90;;;;;;5055061;28;20458;-77
2023/03/01 09:24:20;;;;;;;0.60;0.60;;;6.70;99.90;;;;;;5055392;28;20484;-77
2023/03/01 09:26:48;;;;;;;4.60;1.40;;;7.80;99.90;;;;;;5055101;28;20482;-77
2023/03/01 09:29:15;;;;;;;2.10;1.17;;;8.50;99.90;;;;;;5055260;28;20450;-77
2023/03/01 09:31:42;;;;;;;8.70;2.40;;;8.80;97.90;;;;;;5054856;28;20851;-77
2023/03/01 09:34:09;;;;;;;5.17;3.03;;;9.30;96.10;;;;;;5055153;28;20447;-77
2023/03/01 09:36:38;;;;;;;3.70;2.67;;;9.50;94.40;;;;;;5055032;28;20446;-76
2023/03/01 09:39:06;;;;;;;2.03;1.83;;;9.60;93.30;;;;;;5053488;28;20977;-77
2023/03/01 09:41:50;;;;;;;3.53;1.90;;;10.20;91.20;;;;;;5054629;28;20482;-77
2023/03/01 09:44:32;;;;;;;4.33;1.83;;;10.90;87.50;;;;;;5054194;28;20450;-76
2023/03/01 09:46:59;;;;;;;5.53;2.10;;;10.80;84.60;;;;;;5054699;28;20505;-77
2023/03/01 09:49:30;;;;;;;1.43;1.17;;;11.00;84.30;;;;;;5055051;28;20934;-77
2023/03/01 09:52:01;;;;;;;3.00;1.60;;;11.00;80.30;;;;;;5055377;28;20536;-77
2023/03/01 09:54:28;;;;;;;3.80;2.97;;;10.40;81.80;;;;;;5054458;28;20934;-76
2023/03/01 09:57:12;;;;;;;2.00;1.70;;;10.00;82.30;;;;;;5054716;28;20431;-77
2023/03/01 10:00:01;;;;;;;5.47;1.97;;;10.50;80.10;;;;;;5054559;28;20431;-77
2023/03/01 10:02:36;;;;;;;5.37;2.20;;;10.80;79.30;;;;;;5049810;28;20458;-77
2023/03/01 10:05:20;;;;;;;6.77;2.00;;;11.50;77.00;;;;;;5054532;28;20427;-77
2023/03/01 10:07:59;;;;;;;4.30;1.93;;;11.80;75.20;;;;;;5054313;28;20817;-76
2023/03/01 10:10:29;;;;;;;5.40;1.87;;;11.60;74.70;;;;;;5054778;28;20932;-77
2023/03/01 10:12:57;;;;;;;6.43;1.67;;;11.00;73.00;;;;;;5054459;28;20446;-77
2023/03/01 10:15:34;;;;;;;1.97;1.80;;;10.50;74.00;;;;;;5054336;28;20450;-77
2023/03/01 10:18:07;;;;;;;5.43;2.17;;;10.20;75.60;;;;;;5054263;28;20466;-77
2023/03/01 10:20:44;;;;;;;8.67;2.60;;;9.80;76.80;;;;;;5054017;28;20861;-77
2023/03/01 10:23:12;;;;;;;4.13;2.43;;;9.70;77.90;;;;;;5054253;28;20484;-77
2023/03/01 10:25:48;;;;;;;2.67;1.37;;;9.70;77.90;;;;;;5054087;28;20841;-77
2023/03/01 10:28:19;;;;;;;4.10;1.40;;;10.00;77.70;;;;;;5054080;28;20470;-77
2023/03/01 10:30:46;;;;;;;3.53;1.70;;;10.50;75.80;;;;;;5054098;28;20812;-77
2023/03/01 10:33:18;;;;;;;3.30;2.17;;;11.30;72.80;;;;;;5054219;28;20475;-77
2023/03/01 10:35:47;;;;;;;2.57;1.70;;;12.40;71.00;;;;;;5053986;28;20934;-77
2023/03/01 10:38:16;;;;;;;9.30;3.20;;;13.40;67.10;;;;;;5053370;28;21043;-77
2023/03/01 10:40:54;;;;;;;2.30;1.43;;;14.50;64.50;;;;;;5053848;28;20453;-77
2023/03/01 10:43:22;;;;;;;2.93;1.97;;;15.10;60.20;;;;;;5053863;28;20434;-77
2023/03/01 10:45:49;;;;;;;3.03;1.53;;;15.10;58.70;;;;;;5053462;28;20532;-77
2023/03/01 10:48:19;;;;;;;2.07;1.70;;;15.10;57.80;;;;;;5053705;28;20466;-77
2023/03/01 10:50:47;;;;;;;5.40;3.40;;;14.70;57.50;;;;;;5053421;28;20457;-77
2023/03/01 10:53:26;;;;;;;3.67;2.07;;;14.90;57.30;;;;;;5053655;28;20450;-77
2023/03/01 10:56:06;;;;;;;6.70;2.57;;;14.80;56.60;;;;;;5053586;28;20449;-77
2023/03/01 10:58:34;;;;;;;3.97;2.23;;;15.10;56.00;;;;;;5053745;28;20466;-77
2023/03/01 11:01:04;;;;;;;8.83;2.70;;;15.00;55.90;;;;;;5053210;28;20458;-77
2023/03/01 11:03:33;;;;;;;1.97;1.77;;;15.40;55.10;;;;;;5053498;28;20442;-77
2023/03/01 11:06:03;;;;;;;6.73;2.60;;;16.00;54.00;;;;;;5053426;28;20469;-77
2023/03/01 11:08:37;;;;;;;4.60;2.50;;;16.20;53.30;;;;;;5053403;28;20528;-77
2023/03/01 11:11:31;;;;;;;5.57;2.13;;;15.80;53.10;;;;;;5053163;28;20929;-77
2023/03/01 11:14:00;;;;;;;9.93;2.57;;;14.40;54.30;;;;;;5050711;28;20548;-77
2023/03/01 11:16:30;;;;;;;4.33;2.57;;;12.70;56.50;;;;;;5053022;28;20938;-77
2023/03/01 11:18:58;;;;;;;2.70;1.83;;;11.30;59.30;;;;;;5053294;28;20462;-77
2023/03/01 11:21:27;;;;;;;5.80;2.13;;;10.40;61.80;;;;;;5053065;28;20925;-77
2023/03/01 11:23:55;;;;;;;1.80;1.67;;;9.50;65.20;;;;;;5053304;28;20431;-77
2023/03/01 11:26:22;;;;;;;7.20;2.00;;;8.70;67.20;;;;;;5053157;28;20478;-77
2023/03/01 11:28:54;;;;;;;3.20;1.80;;;8.10;70.10;;;;;;5053179;28;20462;-77
2023/03/01 11:31:24;;;;;;;2.40;1.90;;;7.70;71.50;;;;;;5053225;28;20430;-77
2023/03/01 11:33:55;;;;;;;5.27;2.00;;;7.40;73.50;;;;;;5053439;28;20447;-77
2023/03/01 11:36:31;;;;;;;2.53;1.47;;;7.30;74.00;;;;;;5053378;28;20455;-77
2023/03/01 11:39:04;;;;;;;5.00;2.20;;;7.20;75.50;;;;;;5052915;28;20493;-77
2023/03/01 11:41:34;;;;;;;12.13;1.67;;;7.10;75.30;;;;;;5053144;28;20427;-77
2023/03/01 11:44:04;;;;;;;4.20;2.00;;;7.10;76.70;;;;;;5052922;28;20459;-77
2023/03/01 11:47:00;;;;;;;1.70;1.03;;;7.00;76.50;;;;;;5053001;28;20528;-77
2023/03/01 11:49:57;;;;;;;2.37;2.00;;;6.90;78.10;;;;;;5053043;28;20430;-77
2023/03/01 11:52:35;;;;;;;0.90;0.80;;;6.90;77.80;;;;;;5052249;28;20458;-77
2023/03/01 11:55:28;;;;;;;1.40;0.97;;;6.80;77.90;;;;;;5052696;28;20906;-77
2023/03/01 11:58:11;;;;;;;3.37;1.00;;;6.70;78.10;;;;;;5048151;28;20478;-77
2023/03/01 12:00:50;;;;;;;3.53;0.90;;;6.70;79.00;;;;;;5052974;28;20422;-77
2023/03/01 12:03:28;;;;;;;12.73;1.83;;;6.60;80.10;;;;;;5055611;28;20484;-77
2023/03/01 12:06:27;;;;;;;9.17;1.77;;;6.70;80.80;;;;;;5056560;28;20952;-78
2023/03/01 12:09:04;;;;;;;3.40;1.90;;;6.80;80.00;;;;;;5056977;28;20473;-78
2023/03/01 12:11:49;;;;;;;2.30;1.77;;;6.80;80.00;;;;;;5056809;28;20422;-78
2023/03/01 12:14:31;;;;;;;3.70;1.60;;;6.90;81.60;;;;;;5056379;28;20430;-78
2023/03/01 12:17:21;;;;;;;2.10;1.87;;;6.90;79.30;;;;;;5056559;28;20445;-78
2023/03/01 12:20:09;;;;;;;2.47;1.07;;;6.90;81.10;;;;;;5055260;28;20485;-78
2023/03/01 12:22:44;;;;;;;3.40;2.13;;;6.80;79.90;;;;;;5056555;28;20422;-78
2023/03/01 12:25:31;;;;;;;6.67;1.70;;;6.60;80.60;;;;;;5056492;28;20426;-78
2023/03/01 12:28:20;;;;;;;1.97;1.43;;;6.50;81.20;;;;;;5056358;28;20494;-78
2023/03/01 12:31:09;;;;;;;4.33;1.33;;;6.50;82.30;;;;;;5056421;28;20435;-78
2023/03/01 12:33:46;;;;;;;2.10;1.27;;;6.50;83.10;;;;;;5056323;28;20476;-78
2023/03/01 12:36:26;;;;;;;3.73;1.07;;;6.60;83.00;;;;;;5056322;28;20430;-78
2023/03/01 12:39:07;;;;;;;1.00;1.00;;;6.60;81.70;;;;;;5055855;28;20481;-78
2023/03/01 12:41:45;;;;;;;1.50;1.00;;;6.50;82.50;;;;;;5056227;28;20438;-78
2023/03/01 12:44:32;;;;;;;5.00;1.20;;;6.40;82.70;;;;;;5056176;28;20477;-78
2023/03/01 12:47:08;;;;;;;0.73;0.50;;;6.40;83.50;;;;;;5055961;28;20539;-78
2023/03/01 12:49:38;;;;;;;1.53;1.50;;;6.40;82.50;;;;;;5056091;28;20414;-78
2023/03/01 12:52:13;;;;;;;2.17;1.23;;;6.20;83.60;;;;;;5056034;28;20433;-78
2023/03/01 12:54:40;;;;;;;6.00;1.73;;;6.20;84.00;;;;;;5056019;28;20445;-78
2023/03/01 12:57:16;;;;;;;3.50;1.23;;;6.20;85.10;;;;;;5055515;28;20470;-78
2023/03/01 13:00:00;;;;;;;6.70;1.90;;;6.30;84.80;;;;;;5055832;28;20445;-78
2023/03/01 13:02:32;;;;;;;5.13;1.43;;;6.30;84.60;;;;;;5055711;28;20435;-77
2023/03/01 13:05:14;;;;;;;3.70;0.97;;;6.30;84.80;;;;;;5055722;28;20431;-78
2023/03/01 13:07:45;;;;;;;3.77;1.43;;;6.30;83.60;;;;;;5055537;28;20486;-78